Time;durP1;ratioP1;P1;durP2;ratioP2;P2;SDS_P1;SDS_P2;PMS_P1;PMS_P2;Temp;Humidity;BMP_temperature;BMP_pressure;BME280_temperature;BME280_humidity;BME280_pressure;Samples;Min_cycle;Max_cycle;Signal;HPM_P1;HPM_P2
2022/06/21 00:02:11;;;;;;;2.15;1.00;;;;;;;22.26;58.39;96477.25;10406907;28;20030;-21
2022/06/21 00:07:19;;;;;;;1.27;1.17;;;;;;;22.20;58.42;96479.03;10394702;28;20041;-21
2022/06/21 00:12:20;;;;;;;2.20;1.23;;;;;;;22.15;58.35;96480.84;10372619;28;20491;-22
2022/06/21 00:17:21;;;;;;;1.55;1.20;;;;;;;22.12;58.39;96474.09;10373079;28;20037;-21
2022/06/21 00:22:22;;;;;;;2.80;1.20;;;;;;;22.10;58.65;96478.38;10402948;28;20484;-23
2022/06/21 00:27:22;;;;;;;1.00;1.00;;;;;;;22.08;58.64;96469.91;10379453;28;20038;-23
2022/06/21 00:32:23;;;;;;;1.27;1.10;;;;;;;22.08;58.44;96469.91;10370577;28;20033;-21
2022/06/21 00:37:23;;;;;;;1.20;1.10;;;;;;;22.26;57.69;96449.19;10372140;28;21022;-22
2022/06/21 00:42:31;;;;;;;1.20;1.10;;;;;;;22.44;57.05;96432.69;10371956;28;20296;-22
2022/06/21 00:47:34;;;;;;;1.15;0.93;;;;;;;22.31;57.77;96421.84;10409554;28;20038;-21
2022/06/21 00:52:57;;;;;;;1.70;0.98;;;;;;;22.20;57.95;96405.94;10401225;28;20068;-21
2022/06/21 00:57:57;;;;;;;1.30;0.70;;;;;;;22.14;57.96;96393.28;10396823;28;20065;-23
2022/06/21 01:03:02;;;;;;;1.42;1.15;;;;;;;22.12;58.30;96392.50;10370689;28;20081;-21
2022/06/21 01:08:03;;;;;;;2.05;0.82;;;;;;;22.10;58.40;96396.78;10370851;28;20034;-21
2022/06/21 01:13:11;;;;;;;1.15;1.05;;;;;;;22.09;58.24;96405.31;10386648;28;20046;-24
2022/06/21 01:18:16;;;;;;;1.33;0.90;;;;;;;22.08;58.30;96401.06;10370235;28;20038;-23
2022/06/21 01:23:30;;;;;;;2.00;1.10;;;;;;;22.13;57.74;96406.09;10370168;28;20037;-21
2022/06/21 01:28:32;;;;;;;2.72;1.20;;;;;;;22.34;54.93;96396.31;10370414;28;20045;-21
2022/06/21 01:33:36;;;;;;;1.98;0.70;;;;;;;22.39;56.60;96386.84;10369097;28;20030;-22
2022/06/21 01:38:49;;;;;;;2.60;1.10;;;;;;;22.24;57.28;96392.25;10369677;28;20441;-24
2022/06/21 01:43:55;;;;;;;2.78;1.23;;;;;;;22.16;57.65;96386.44;10376802;28;20030;-22
2022/06/21 01:49:03;;;;;;;0.75;0.75;;;;;;;22.13;57.97;96383.16;10410502;28;20069;-21
2022/06/21 01:54:09;;;;;;;1.15;1.05;;;;;;;22.10;58.04;96386.59;10401512;28;20203;-22
2022/06/21 01:59:25;;;;;;;1.42;1.27;;;;;;;22.04;57.88;96379.06;10384782;28;20659;-22
2022/06/21 02:04:29;;;;;;;2.03;1.33;;;;;;;22.08;57.93;96378.09;10368556;28;20041;-23
2022/06/21 02:09:36;;;;;;;1.60;0.90;;;;;;;22.07;57.97;96370.50;10368689;28;20038;-22
2022/06/21 02:14:45;;;;;;;1.83;1.15;;;;;;;22.37;52.74;96363.06;10367419;28;20048;-21
2022/06/21 02:20:07;;;;;;;1.73;1.33;;;;;;;22.54;52.32;96366.16;10404270;28;20041;-23
2022/06/21 02:25:24;;;;;;;1.25;1.00;;;;;;;22.29;55.97;96357.28;10367465;28;20033;-23
2022/06/21 02:30:26;;;;;;;1.13;1.00;;;;;;;22.19;56.75;96348.16;10366688;28;20419;-21
2022/06/21 02:35:32;;;;;;;3.35;1.05;;;;;;;22.14;57.20;96352.50;10366747;28;20419;-24
2022/06/21 02:40:41;;;;;;;1.65;1.20;;;;;;;22.11;57.51;96344.06;10367368;28;20456;-23
2022/06/21 02:45:53;;;;;;;2.53;0.80;;;;;;;22.08;56.51;96336.50;10389035;28;20041;-21
2022/06/21 02:51:02;;;;;;;1.05;0.85;;;;;;;22.07;57.36;96335.63;10395078;28;20188;-22
2022/06/21 02:56:09;;;;;;;1.25;0.75;;;;;;;22.05;57.79;96332.28;10407547;28;20499;-23
2022/06/21 03:01:18;;;;;;;2.15;0.85;;;;;;;22.18;52.88;96331.19;10408219;28;20045;-21
2022/06/21 03:06:20;;;;;;;1.23;0.85;;;;;;;22.47;50.50;96310.19;10404284;28;20025;-24
2022/06/21 03:11:27;;;;;;;2.65;1.23;;;;;;;22.36;53.53;96310.38;10366983;28;20405;-21
2022/06/21 03:16:28;;;;;;;1.20;0.80;;;;;;;22.22;55.40;96298.81;10367016;28;20037;-22
2022/06/21 03:21:34;;;;;;;1.05;0.73;;;;;;;22.18;55.62;96308.22;10367049;28;20037;-20
2022/06/21 03:26:39;;;;;;;1.42;0.98;;;;;;;22.14;56.32;96314.25;10367983;28;20045;-22
2022/06/21 03:31:44;;;;;;;1.53;1.00;;;;;;;22.11;56.36;96306.66;10418378;28;20087;-24
2022/06/21 03:36:45;;;;;;;1.73;0.65;;;;;;;22.08;56.99;96319.47;10399204;28;20037;-21
2022/06/21 03:41:48;;;;;;;4.73;0.73;;;;;;;22.04;55.28;96320.41;10373576;28;20397;-22
2022/06/21 03:47:09;;;;;;;1.05;0.82;;;;;;;19.85;59.05;96322.22;10407706;28;20370;-23
2022/06/21 03:52:41;;;;;;;4.03;1.27;;;;;;;19.45;57.42;96320.94;10404746;28;20069;-22
2022/06/21 03:57:47;;;;;;;5.10;2.35;;;;;;;19.35;56.57;96329.53;10376373;28;20053;-21
2022/06/21 04:02:58;;;;;;;3.25;1.30;;;;;;;19.18;56.67;96334.69;10376528;28;20030;-22
2022/06/21 04:08:07;;;;;;;1.70;1.02;;;;;;;19.12;56.65;96337.31;10375151;28;20497;-20
2022/06/21 04:13:17;;;;;;;2.92;1.20;;;;;;;18.98;56.73;96341.66;10374268;28;20056;-20
2022/06/21 04:18:31;;;;;;;2.05;1.30;;;;;;;18.93;56.92;96350.97;10375749;28;20034;-20
2022/06/21 04:23:42;;;;;;;1.40;1.10;;;;;;;18.93;56.83;96370.44;10401176;28;20033;-21
2022/06/21 04:28:48;;;;;;;2.13;1.10;;;;;;;18.80;57.31;96374.75;10385377;28;20038;-21
2022/06/21 04:34:19;;;;;;;3.05;1.50;;;;;;;18.80;57.19;96379.84;10371804;28;20026;-20
2022/06/21 04:39:33;;;;;;;1.48;1.00;;;;;;;18.79;57.29;96375.63;10371586;28;20038;-20
2022/06/21 04:44:55;;;;;;;2.33;1.75;;;;;;;18.80;56.93;96371.38;10384711;28;20041;-21
2022/06/21 04:50:14;;;;;;;4.55;1.80;;;;;;;18.75;57.13;96375.66;10396791;28;20041;-21
2022/06/21 04:55:16;;;;;;;3.22;1.50;;;;;;;18.68;57.53;96379.06;10369990;28;20033;-21
2022/06/21 05:00:19;;;;;;;5.30;1.63;;;;;;;18.63;57.73;96386.72;10371764;28;20037;-20
2022/06/21 05:05:29;;;;;;;2.17;1.50;;;;;;;19.95;54.62;96369.50;10370269;28;20113;-20
2022/06/21 05:10:35;;;;;;;3.47;1.50;;;;;;;20.45;53.87;96357.91;10370778;28;20026;-20
2022/06/21 05:15:37;;;;;;;;;;;;;;;20.72;53.00;96347.34;10369980;28;20030;-21
2022/06/21 05:21:00;;;;;;;2.47;1.35;;;;;;;20.85;53.20;96331.84;10370078;28;20012;-20
2022/06/21 05:26:07;;;;;;;4.05;1.35;;;;;;;20.96;53.48;96317.28;10369291;28;20114;-22
2022/06/21 05:31:20;;;;;;;6.40;1.65;;;;;;;21.26;53.27;96324.44;10410317;28;20037;-21
2022/06/21 05:36:27;;;;;;;18.88;2.17;;;;;;;21.32;51.81;96319.19;10402748;28;20484;-23
2022/06/21 05:41:34;;;;;;;6.65;1.17;;;;;;;21.27;53.25;96323.56;10368105;28;20033;-20
2022/06/21 05:46:44;;;;;;;4.28;1.40;;;;;;;21.27;53.54;96331.19;10399561;28;20041;-21
2022/06/21 05:51:45;;;;;;;4.25;1.30;;;;;;;21.27;53.98;96328.66;10398831;28;20046;-21
2022/06/21 05:56:47;;;;;;;4.40;1.20;;;;;;;21.27;53.89;96328.66;10403828;28;20046;-21
2022/06/21 06:01:54;;;;;;;2.10;0.95;;;;;;;21.29;54.02;96337.09;10368985;28;20034;-22
2022/06/21 06:06:57;;;;;;;2.80;1.10;;;;;;;21.29;54.39;96326.91;10368680;28;20040;-21
2022/06/21 06:12:11;;;;;;;1.48;0.90;;;;;;;21.31;54.27;96330.25;10368576;28;20030;-21
2022/06/21 06:17:32;;;;;;;2.55;1.15;;;;;;;21.56;54.48;96335.78;10387131;28;20519;-21
2022/06/21 06:22:48;;;;;;;1.42;0.93;;;;;;;21.72;54.03;96332.94;10400216;28;20033;-22
2022/06/21 06:28:16;;;;;;;1.67;1.03;;;;;;;21.58;54.28;96316.19;10389099;28;20044;-21
2022/06/21 06:33:26;;;;;;;2.40;0.95;;;;;;;21.48;54.56;96297.69;10447438;28;20041;-21
2022/06/21 06:38:28;;;;;;;3.08;1.10;;;;;;;21.43;54.83;96289.31;10406430;28;20118;-21
2022/06/21 06:44:09;;;;;;;1.58;0.73;;;;;;;21.43;54.70;96299.50;10371340;28;20029;-20
2022/06/21 06:49:21;;;;;;;1.38;1.10;;;;;;;21.43;54.85;96301.19;10403877;28;20056;-21
2022/06/21 06:54:30;;;;;;;1.45;1.08;;;;;;;21.42;54.97;96308.00;10406897;28;20124;-21
2022/06/21 06:59:30;;;;;;;1.80;1.20;;;;;;;21.43;54.98;96302.03;10380440;28;20026;-23
2022/06/21 07:04:39;;;;;;;1.55;0.80;;;;;;;21.73;54.84;96306.59;10366756;28;20455;-21
2022/06/21 07:09:47;;;;;;;1.27;0.80;;;;;;;21.84;54.43;96322.53;10367462;28;20038;-20
2022/06/21 07:14:49;;;;;;;1.30;0.90;;;;;;;21.72;54.83;96329.56;10369448;28;20108;-22
2022/06/21 07:19:52;;;;;;;1.25;0.70;;;;;;;21.60;54.85;96343.34;10380383;28;20053;-21
2022/06/21 07:25:06;;;;;;;1.98;0.85;;;;;;;21.56;55.13;96346.78;10405712;28;20538;-22
2022/06/21 07:30:13;;;;;;;1.63;0.80;;;;;;;21.54;55.10;96348.53;10387830;28;20041;-21
2022/06/21 07:35:24;;;;;;;2.25;0.95;;;;;;;21.51;55.34;96343.50;10379549;28;20153;-20
2022/06/21 07:40:31;;;;;;;1.60;0.80;;;;;;;21.51;55.14;96342.66;10380372;28;20075;-21
2022/06/21 07:45:40;;;;;;;1.55;1.05;;;;;;;21.55;55.33;96355.31;10400842;28;20029;-21
2022/06/21 07:50:49;;;;;;;1.65;1.05;;;;;;;21.83;55.02;96356.53;10417979;28;20045;-21
2022/06/21 07:56:00;;;;;;;1.02;0.80;;;;;;;21.91;54.88;96338.53;10379313;28;20033;-21
2022/06/21 08:06:43;;;;;;;1.83;0.63;;;;;;;21.64;55.18;96309.28;10378842;28;20038;-22
2022/06/21 08:11:46;;;;;;;2.65;1.42;;;;;;;21.62;55.47;96316.13;10379823;28;20049;-21
2022/06/21 08:16:59;;;;;;;1.15;0.80;;;;;;;21.58;55.53;96304.31;10378689;28;20095;-21
2022/06/21 08:22:07;;;;;;;1.35;0.57;;;;;;;21.57;55.56;96302.63;10379761;28;20032;-21
2022/06/21 08:27:23;;;;;;;1.52;1.33;;;;;;;21.58;55.62;96303.47;10374535;28;20029;-21
2022/06/21 08:32:33;;;;;;;2.17;0.77;;;;;;;21.65;56.04;96305.06;10372545;28;20062;-22
2022/06/21 08:37:36;;;;;;;1.20;0.77;;;;;;;21.91;55.49;96307.94;10372311;28;20040;-21
2022/06/21 08:42:57;;;;;;;1.08;0.80;;;;;;;21.94;55.33;96311.28;10371959;28;20034;-21
2022/06/21 08:48:06;;;;;;;0.80;0.60;;;;;;;21.83;55.29;96320.84;10412496;28;20037;-21
2022/06/21 08:53:18;;;;;;;1.30;0.90;;;;;;;21.75;55.54;96332.03;10392101;28;20042;-22
2022/06/21 08:58:37;;;;;;;1.52;1.13;;;;;;;21.71;55.62;96335.53;10371662;28;20509;-21
2022/06/21 09:04:00;;;;;;;1.38;0.80;;;;;;;21.68;55.61;96333.88;10370966;28;20030;-21
2022/06/21 09:09:06;;;;;;;0.93;0.70;;;;;;;21.67;55.65;96347.50;10371261;28;20049;-20
2022/06/21 09:14:25;;;;;;;1.40;0.80;;;;;;;21.64;55.65;96342.41;10370469;28;20112;-23
2022/06/21 09:19:47;;;;;;;2.15;0.88;;;;;;;21.72;56.51;96330.38;10370847;28;20099;-21
2022/06/21 09:25:26;;;;;;;1.35;0.70;;;;;;;21.99;55.51;96321.38;10370706;28;20037;-21
2022/06/21 09:30:42;;;;;;;0.85;0.70;;;;;;;21.97;55.44;96307.84;10363621;28;20038;-22
2022/06/21 09:36:06;;;;;;;1.80;0.60;;;;;;;21.82;55.61;96292.84;10369333;28;20062;-20
2022/06/21 09:41:14;;;;;;;1.00;0.70;;;;;;;21.72;55.79;96276.88;10370339;28;20040;-22
2022/06/21 09:46:48;;;;;;;0.75;0.75;;;;;;;21.71;55.87;96274.38;10396571;28;20064;-22
2022/06/21 09:52:04;;;;;;;1.10;0.98;;;;;;;21.69;55.83;96297.34;10404687;28;20076;-24
2022/06/21 09:57:31;;;;;;;1.27;0.73;;;;;;;21.68;55.95;96297.34;10402369;28;20033;-23
2022/06/21 10:03:00;;;;;;;1.20;0.73;;;;;;;21.67;56.14;96288.88;10369310;28;20439;-20
2022/06/21 10:08:09;;;;;;;0.90;0.77;;;;;;;21.81;56.40;96299.63;10364939;28;20042;-21
2022/06/21 10:13:19;;;;;;;1.05;0.70;;;;;;;22.02;55.78;96225.28;10368169;28;20041;-21
2022/06/21 10:19:01;;;;;;;0.70;0.65;;;;;;;21.98;55.71;96222.84;10368959;28;20033;-22
2022/06/21 10:24:13;;;;;;;0.70;0.70;;;;;;;21.83;55.78;96248.63;10367183;28;20037;-22
2022/06/21 10:29:28;;;;;;;0.50;0.50;;;;;;;21.78;56.04;96256.38;10367558;28;20417;-21
2022/06/21 10:35:08;;;;;;;0.83;0.53;;;;;;;21.76;55.99;96268.31;10367287;28;20117;-21
2022/06/21 10:40:14;;;;;;;0.95;0.70;;;;;;;21.73;56.15;96247.16;10367363;28;20054;-21
2022/06/21 10:45:20;;;;;;;3.80;1.08;;;;;;;21.71;56.21;96259.91;10385828;28;20060;-20
2022/06/21 10:50:36;;;;;;;4.50;0.98;;;;;;;21.70;56.11;96270.13;10384478;28;20128;-21
2022/06/21 11:01:45;;;;;;;3.08;0.75;;;;;;;22.08;56.25;96271.03;10367325;28;20382;-22
2022/06/21 11:06:58;;;;;;;0.80;0.63;;;;;;;21.99;55.97;96257.66;10366504;28;20036;-24
2022/06/21 11:17:48;;;;;;;9.20;1.10;;;;;;;21.78;56.16;96220.72;10366599;28;20117;-22
2022/06/21 11:22:57;;;;;;;17.35;3.05;;;;;;;21.77;56.24;96193.56;10364540;28;20033;-21
2022/06/21 11:28:06;;;;;;;13.55;2.65;;;;;;;21.76;56.17;96202.06;10366621;28;20041;-21
2022/06/21 11:33:16;;;;;;;13.95;2.90;;;;;;;21.76;56.21;96166.41;10366104;28;20505;-21
2022/06/21 11:38:36;;;;;;;12.85;2.88;;;;;;;21.73;56.36;96130.75;10366941;28;20064;-24
2022/06/21 11:43:48;;;;;;;6.38;1.48;;;;;;;21.90;57.23;96122.75;10371243;28;20030;-21
2022/06/21 11:49:29;;;;;;;3.40;1.00;;;;;;;22.10;56.22;96116.31;10406983;28;20038;-20
2022/06/21 11:54:39;;;;;;;4.30;0.80;;;;;;;21.99;56.21;96087.69;10371777;28;20034;-21
2022/06/21 11:59:58;;;;;;;8.13;1.25;;;;;;;21.88;55.98;96061.63;10366095;28;20113;-21
2022/06/21 12:05:06;;;;;;;6.72;2.22;;;;;;;21.86;56.31;96050.63;10373596;28;20036;-22
2022/06/21 12:10:20;;;;;;;6.60;1.70;;;;;;;21.82;56.49;96041.38;10373819;28;20381;-22
2022/06/21 12:15:25;;;;;;;7.28;1.80;;;;;;;21.81;56.44;96026.97;10373003;28;20029;-22
2022/06/21 12:20:31;;;;;;;4.25;1.33;;;;;;;21.80;56.33;96030.38;10373217;28;20033;-21
2022/06/21 12:25:31;;;;;;;4.50;1.60;;;;;;;21.81;56.44;96026.97;10372028;28;20447;-23
2022/06/21 12:30:32;;;;;;;2.13;1.05;;;;;;;21.88;58.08;96035.31;10371124;28;20092;-21
2022/06/21 12:35:50;;;;;;;3.28;0.70;;;;;;;22.11;56.49;96044.06;10403694;28;20037;-21
2022/06/21 12:41:12;;;;;;;0.95;0.68;;;;;;;22.09;56.39;96057.72;10404918;28;20033;-21
2022/06/21 12:46:27;;;;;;;2.97;1.00;;;;;;;21.98;56.45;96075.81;10398637;28;20488;-23
2022/06/21 12:51:45;;;;;;;1.95;0.90;;;;;;;21.93;56.39;96072.56;10407499;28;20025;-21
2022/06/21 12:57:06;;;;;;;3.20;1.30;;;;;;;21.89;56.49;96075.22;10370886;28;20026;-22
2022/06/21 13:02:22;;;;;;;3.50;1.00;;;;;;;21.89;56.49;96093.06;10371315;28;20038;-22
2022/06/21 13:07:37;;;;;;;7.10;1.40;;;;;;;21.87;56.39;96103.28;10370955;28;20040;-22
2022/06/21 13:12:43;;;;;;;5.20;1.23;;;;;;;21.84;56.58;96108.44;10376277;28;20042;-22
2022/06/21 13:18:03;;;;;;;3.08;0.90;;;;;;;21.92;58.21;96106.56;10411459;28;20454;-21
2022/06/21 13:23:38;;;;;;;0.90;0.70;;;;;;;22.14;56.80;96094.97;10404079;28;20037;-21
2022/06/21 13:28:38;;;;;;;2.42;0.65;;;;;;;22.05;56.79;96079.91;10390256;28;20077;-21
2022/06/21 13:33:38;;;;;;;1.20;0.80;;;;;;;21.99;56.44;96090.22;10369328;28;20065;-21
2022/06/21 13:38:51;;;;;;;1.58;0.70;;;;;;;21.92;56.46;96086.19;10370036;28;20041;-21
2022/06/21 13:43:54;;;;;;;1.17;0.80;;;;;;;21.88;56.67;96078.63;10396398;28;20037;-21
2022/06/21 13:49:11;;;;;;;1.20;0.90;;;;;;;21.87;56.55;96080.34;10413634;28;20037;-21
2022/06/21 13:54:20;;;;;;;2.92;1.10;;;;;;;21.86;56.71;96088.84;10404843;28;20040;-21
2022/06/21 13:59:28;;;;;;;1.70;1.10;;;;;;;21.88;56.86;96083.75;10385295;28;20068;-21
2022/06/21 14:04:44;;;;;;;2.10;1.00;;;;;;;21.87;57.16;96080.34;10403775;28;20033;-22
2022/06/21 14:10:03;;;;;;;1.00;0.60;;;;;;;22.09;56.94;96073.88;10392220;28;20092;-21
2022/06/21 14:15:06;;;;;;;0.70;0.60;;;;;;;22.17;56.55;96073.66;10405595;28;20056;-21
2022/06/21 14:20:16;;;;;;;1.45;0.80;;;;;;;22.02;56.59;96064.69;10409856;28;20041;-22
2022/06/21 14:25:29;;;;;;;1.75;0.82;;;;;;;21.94;56.73;96066.56;10372466;28;20058;-22
2022/06/21 14:30:35;;;;;;;1.60;0.80;;;;;;;21.89;56.63;96070.94;10394268;28;20121;-21
2022/06/21 14:35:38;;;;;;;1.75;0.80;;;;;;;21.87;56.84;96062.50;10399848;28;20060;-21
2022/06/21 14:40:54;;;;;;;1.60;1.00;;;;;;;21.85;56.94;96059.16;10368520;28;20050;-21
2022/06/21 14:46:04;;;;;;;1.52;0.90;;;;;;;21.83;56.87;96050.72;10392145;28;20045;-21
2022/06/21 14:51:20;;;;;;;1.58;1.15;;;;;;;21.84;57.16;96052.38;10395994;28;20029;-23
2022/06/21 14:56:29;;;;;;;1.77;0.90;;;;;;;22.04;57.23;96037.44;10405675;28;20048;-21
2022/06/21 15:01:38;;;;;;;1.35;0.63;;;;;;;22.19;56.68;96034.50;10387520;28;20109;-21
2022/06/21 15:06:40;;;;;;;1.92;0.82;;;;;;;22.06;56.96;96025.47;10397855;28;20519;-21
2022/06/21 15:12:04;;;;;;;0.80;0.60;;;;;;;21.97;56.68;96014.69;10391329;28;20029;-22
2022/06/21 15:17:13;;;;;;;2.72;1.20;;;;;;;21.91;56.84;96008.00;10397282;28;20175;-22
2022/06/21 15:22:25;;;;;;;1.63;0.90;;;;;;;21.88;57.04;96003.00;10375849;28;20201;-21
2022/06/21 15:27:31;;;;;;;0.70;0.70;;;;;;;21.88;57.14;96002.19;10388026;28;20030;-21
2022/06/21 15:32:47;;;;;;;0.90;0.80;;;;;;;21.87;57.00;95982.63;10407076;28;20484;-22
2022/06/21 15:37:54;;;;;;;1.63;0.80;;;;;;;21.82;57.21;95962.38;10388773;28;20049;-23
2022/06/21 15:43:07;;;;;;;0.63;0.63;;;;;;;22.00;57.62;95956.84;10374481;28;20566;-21
2022/06/21 15:53:55;;;;;;;1.05;0.90;;;;;;;22.10;57.13;95978.66;10409636;28;20120;-21
2022/06/21 15:59:16;;;;;;;;;;;;;;;22.01;56.84;95995.88;10374386;28;20038;-21
2022/06/21 16:04:51;;;;;;;1.95;0.80;;;;;;;21.94;56.88;95981.63;10372104;28;19913;-22
2022/06/21 16:09:56;;;;;;;0.70;0.70;;;;;;;21.90;56.99;95991.06;10372516;28;20045;-21
2022/06/21 16:15:03;;;;;;;1.23;0.87;;;;;;;21.90;57.08;95985.94;10373238;28;20033;-22
2022/06/21 16:20:19;;;;;;;1.08;0.80;;;;;;;21.87;57.15;95996.22;10373924;28;20477;-21
2022/06/21 16:25:24;;;;;;;1.02;0.82;;;;;;;21.88;57.11;95985.16;10372453;28;20374;-21
2022/06/21 16:30:29;;;;;;;0.95;0.65;;;;;;;22.00;58.41;95984.88;10373033;28;20455;-21
2022/06/21 16:35:36;;;;;;;0.80;0.50;;;;;;;22.19;57.29;95978.41;10371845;28;20045;-21
2022/06/21 16:46:06;;;;;;;2.05;0.65;;;;;;;22.01;57.50;95978.03;10394483;28;20112;-21
2022/06/21 16:51:35;;;;;;;1.90;1.00;;;;;;;21.93;57.66;95969.75;10407482;28;20562;-22
2022/06/21 16:56:47;;;;;;;6.65;1.58;;;;;;;21.94;57.28;95976.53;10370102;28;20042;-21
2022/06/21 17:01:50;;;;;;;4.90;1.00;;;;;;;21.91;57.36;95969.78;10371654;28;20030;-21
2022/06/21 17:06:56;;;;;;;1.33;0.88;;;;;;;21.91;57.40;95987.63;10370480;28;20121;-23
2022/06/21 17:12:01;;;;;;;1.05;0.70;;;;;;;21.98;59.00;96009.53;10370839;28;20375;-21
2022/06/21 17:17:07;;;;;;;1.33;0.63;;;;;;;22.18;57.56;96001.38;10370542;28;20042;-21
2022/06/21 17:22:19;;;;;;;0.47;0.40;;;;;;;22.19;57.41;96000.50;10369638;28;20073;-21
2022/06/21 17:27:44;;;;;;;2.47;0.63;;;;;;;22.07;57.18;96009.31;10370423;28;20038;-21
2022/06/21 17:33:03;;;;;;;0.90;0.65;;;;;;;21.98;57.30;96014.63;10369519;28;20045;-21
2022/06/21 17:38:22;;;;;;;1.27;0.70;;;;;;;21.96;57.20;96016.41;10368232;28;20385;-24
2022/06/21 17:43:43;;;;;;;1.25;0.60;;;;;;;21.92;57.10;96019.91;10391685;28;20192;-21
2022/06/21 17:48:56;;;;;;;0.82;0.65;;;;;;;21.89;57.28;95996.22;10405442;28;20504;-21
2022/06/21 17:54:06;;;;;;;1.05;0.68;;;;;;;21.88;57.41;95986.88;10398539;28;20108;-21
2022/06/21 17:59:17;;;;;;;1.52;1.13;;;;;;;21.93;58.29;95991.00;10385127;28;20378;-21
2022/06/21 18:04:22;;;;;;;1.02;0.70;;;;;;;22.15;57.61;96001.47;10368758;28;20041;-21
2022/06/21 18:09:37;;;;;;;0.28;0.28;;;;;;;22.21;57.17;95993.66;10368504;28;20045;-21
2022/06/21 18:14:38;;;;;;;1.98;0.50;;;;;;;22.08;57.35;95990.59;10367833;28;20145;-20
2022/06/21 18:20:00;;;;;;;1.25;0.70;;;;;;;22.01;57.05;96004.38;10368262;28;20280;-22
2022/06/21 18:25:27;;;;;;;0.70;0.40;;;;;;;21.97;57.16;96005.31;10367337;28;20124;-22
2022/06/21 18:30:48;;;;;;;0.70;0.70;;;;;;;21.96;57.07;96026.59;10367082;28;20559;-23
2022/06/21 18:35:57;;;;;;;6.50;1.05;;;;;;;21.82;57.61;96054.09;10366822;28;20477;-21
2022/06/21 18:41:11;;;;;;;3.50;0.73;;;;;;;21.97;57.76;96074.16;10367774;28;20041;-22
2022/06/21 18:46:26;;;;;;;1.70;0.95;;;;;;;21.95;57.31;96073.34;10398298;28;20592;-21
2022/06/21 18:51:48;;;;;;;1.40;0.80;;;;;;;22.16;58.14;96075.38;10398312;28;20408;-21
2022/06/21 18:56:57;;;;;;;0.73;0.50;;;;;;;22.24;57.28;96032.66;10399026;28;20061;-21
2022/06/21 19:02:43;;;;;;;0.90;0.60;;;;;;;22.10;57.46;96024.53;10400528;28;20064;-21
2022/06/21 19:08:30;;;;;;;1.58;0.70;;;;;;;21.99;57.43;96005.28;10390298;28;20103;-22
2022/06/21 19:13:43;;;;;;;3.70;1.08;;;;;;;21.92;57.41;96004.63;10360461;28;20049;-21
2022/06/21 19:18:58;;;;;;;1.42;0.93;;;;;;;21.90;57.34;96003.78;10407669;28;20036;-23
2022/06/21 19:24:15;;;;;;;4.53;1.65;;;;;;;21.91;57.42;96002.09;10392758;28;20041;-22
2022/06/21 19:29:38;;;;;;;5.95;1.70;;;;;;;21.91;57.32;96018.22;10362024;28;20077;-23
2022/06/21 19:35:12;;;;;;;4.05;1.55;;;;;;;21.90;57.37;96025.91;10361258;28;20034;-22
2022/06/21 19:40:39;;;;;;;1.05;0.60;;;;;;;22.17;57.80;96054.13;10400111;28;20037;-21
2022/06/21 19:45:56;;;;;;;0.73;0.57;;;;;;;22.23;57.42;96061.59;10399027;28;20488;-21
2022/06/21 19:51:08;;;;;;;;;;;;;;;22.08;57.72;96073.91;10399903;28;20030;-21
2022/06/21 19:56:14;;;;;;;2.00;0.98;;;;;;;21.98;57.85;96075.00;10388702;28;20426;-24
2022/06/21 20:01:15;;;;;;;1.27;0.57;;;;;;;21.97;57.83;96081.78;10391588;28;20041;-21
2022/06/21 20:06:25;;;;;;;1.53;0.87;;;;;;;21.97;57.58;96093.72;10384498;28;20041;-21
2022/06/21 20:11:45;;;;;;;4.55;1.95;;;;;;;21.89;57.72;96091.31;10360846;28;20042;-22
2022/06/21 20:17:02;;;;;;;3.53;1.38;;;;;;;21.99;59.39;96097.88;10357932;28;20038;-23
2022/06/21 20:22:14;;;;;;;4.93;1.40;;;;;;;22.21;58.51;96109.25;10372411;28;20033;-22
2022/06/21 20:27:31;;;;;;;5.20;1.10;;;;;;;22.23;58.02;96112.59;10398994;28;20065;-19
2022/06/21 20:32:48;;;;;;;5.75;1.20;;;;;;;22.00;57.44;96083.44;10386554;28;20033;-24
2022/06/21 20:38:13;;;;;;;7.78;1.88;;;;;;;22.06;57.39;96127.47;10400938;28;20049;-23
2022/06/21 20:43:19;;;;;;;4.93;2.65;;;;;;;22.02;57.49;96120.78;10388454;28;20459;-21
2022/06/21 20:48:48;;;;;;;5.00;2.78;;;;;;;21.99;57.30;96123.38;10407700;28;20029;-21
2022/06/21 20:54:05;;;;;;;3.05;1.90;;;;;;;22.00;57.79;96124.22;10400451;28;20095;-22
2022/06/21 20:59:34;;;;;;;4.55;2.65;;;;;;;21.99;57.41;96137.84;10388406;28;20030;-21
2022/06/21 21:05:09;;;;;;;5.57;3.47;;;;;;;22.08;60.02;96138.44;10371824;28;20081;-21
2022/06/21 21:10:33;;;;;;;2.85;0.88;;;;;;;22.28;57.75;96143.94;10376947;28;20498;-22
2022/06/21 21:16:13;;;;;;;3.00;1.50;;;;;;;22.20;57.19;96140.72;10422780;28;20163;-21
2022/06/21 21:21:20;;;;;;;4.55;2.17;;;;;;;22.07;57.14;96144.44;10416686;28;20039;-21
2022/06/21 21:26:21;;;;;;;;;;;;;;;22.02;57.11;96143.72;10409891;28;20491;-21
2022/06/21 21:31:25;;;;;;;5.85;2.97;;;;;;;22.00;57.44;96142.06;10412736;28;20453;-22
2022/06/21 21:36:47;;;;;;;5.53;2.28;;;;;;;21.98;57.27;96131.88;10412337;28;20053;-22
2022/06/21 21:41:50;;;;;;;4.80;1.90;;;;;;;21.83;57.42;96104.22;10369947;28;20032;-26
2022/06/21 21:46:54;;;;;;;4.20;2.08;;;;;;;21.95;57.42;96121.78;10402201;28;20037;-21
2022/06/21 21:51:58;;;;;;;4.80;2.83;;;;;;;22.06;59.82;96122.34;10403009;28;20480;-21
2022/06/21 21:57:09;;;;;;;3.05;1.13;;;;;;;22.25;57.91;96121.06;10368976;28;20026;-21
2022/06/21 22:02:16;;;;;;;2.53;1.15;;;;;;;22.22;57.79;96127.94;10368868;28;20476;-21
2022/06/21 22:07:29;;;;;;;3.33;1.70;;;;;;;22.12;57.30;96129.88;10383312;28;20294;-22
2022/06/21 22:12:56;;;;;;;4.75;2.90;;;;;;;22.05;57.28;96138.53;10396938;28;20037;-21
2022/06/21 22:18:11;;;;;;;5.25;2.72;;;;;;;22.04;57.72;96149.59;10368669;28;20037;-21
2022/06/21 22:23:24;;;;;;;5.10;2.92;;;;;;;22.02;57.34;96153.91;10367904;28;20112;-21
2022/06/21 22:28:40;;;;;;;4.45;2.55;;;;;;;21.99;57.32;96148.84;10368588;28;20248;-23
2022/06/21 22:33:43;;;;;;;3.42;2.92;;;;;;;22.00;57.27;96163.31;10368077;28;20045;-21
2022/06/21 22:38:47;;;;;;;3.20;2.70;;;;;;;22.00;59.45;96155.66;10367641;28;20512;-21
2022/06/21 22:43:51;;;;;;;1.90;1.25;;;;;;;22.22;57.90;96156.81;10374581;28;20030;-23
2022/06/21 22:49:00;;;;;;;1.13;1.02;;;;;;;22.23;57.75;96163.59;10407321;28;20446;-21
2022/06/21 22:54:08;;;;;;;3.10;1.67;;;;;;;22.12;57.43;96160.47;10399852;28;20044;-21
2022/06/21 22:59:27;;;;;;;3.03;2.38;;;;;;;22.04;57.31;96157.25;10383454;28;20033;-21
2022/06/21 23:04:40;;;;;;;2.42;1.92;;;;;;;21.99;57.28;96138.66;10366340;28;20556;-21
2022/06/21 23:09:45;;;;;;;4.50;2.30;;;;;;;21.99;57.52;96142.94;10367646;28;20065;-21
2022/06/21 23:14:53;;;;;;;4.97;2.92;;;;;;;21.97;57.30;96132.78;10366023;28;20130;-21
2022/06/21 23:19:53;;;;;;;4.20;3.53;;;;;;;21.99;57.50;96148.03;10367269;28;20111;-21
2022/06/21 23:24:56;;;;;;;3.77;2.70;;;;;;;21.98;57.49;96137.00;10366320;28;20115;-21
2022/06/21 23:30:13;;;;;;;3.05;1.30;;;;;;;22.19;58.28;96128.84;10366966;28;20293;-22
2022/06/21 23:35:18;;;;;;;1.38;1.00;;;;;;;22.28;57.45;96120.97;10366646;28;20038;-20
2022/06/21 23:40:26;;;;;;;2.72;1.95;;;;;;;22.15;57.56;96114.50;10366864;28;20611;-21
2022/06/21 23:45:35;;;;;;;2.22;1.70;;;;;;;22.07;57.43;96116.38;10387169;28;20069;-22
2022/06/21 23:50:36;;;;;;;3.42;3.13;;;;;;;21.99;57.18;96097.06;10396300;28;20057;-21
2022/06/21 23:55:38;;;;;;;4.97;2.50;;;;;;;22.02;57.32;96092.72;10406676;28;20036;-21
